Time;durP1;ratioP1;P1;durP2;ratioP2;P2;SDS_P1;SDS_P2;PMS_P1;PMS_P2;Temp;Humidity;BMP_temperature;BMP_pressure;BME280_temperature;BME280_humidity;BME280_pressure;Samples;Min_cycle;Max_cycle;Signal;HPM_P1;HPM_P2
2022/11/08 00:01:51;;;;;;;29.23;17.83;;;13.30;99.90;;;;;;5053314;28;20404;-68
2022/11/08 00:04:55;;;;;;;27.33;17.48;;;13.30;99.90;;;;;;5053662;28;20064;-70
2022/11/08 00:14:47;;;;;;;31.80;18.77;;;13.10;99.90;;;;;;5053181;28;20500;-69
2022/11/08 00:17:51;;;;;;;27.02;16.88;;;13.20;99.90;;;;;;5053260;28;20048;-69
2022/11/08 00:20:59;;;;;;;26.70;17.15;;;13.20;99.90;;;;;;5052976;28;20076;-68
2022/11/08 00:24:03;;;;;;;24.15;17.00;;;13.10;99.90;;;;;;5052962;28;20036;-68
2022/11/08 00:27:26;;;;;;;32.95;17.35;;;13.00;99.90;;;;;;5053007;28;20052;-69
2022/11/08 00:30:30;;;;;;;22.08;16.02;;;13.00;99.90;;;;;;5052956;28;20056;-69
2022/11/08 00:33:34;;;;;;;23.17;17.67;;;12.90;99.90;;;;;;5052705;28;20052;-68
2022/11/08 00:36:38;;;;;;;27.63;16.52;;;12.90;99.90;;;;;;5052871;28;20393;-69
2022/11/08 00:39:42;;;;;;;29.65;16.42;;;12.90;99.90;;;;;;5052139;28;20048;-68
2022/11/08 00:42:46;;;;;;;23.20;16.88;;;12.90;99.90;;;;;;5052533;28;20059;-69
2022/11/08 00:45:50;;;;;;;29.50;17.20;;;12.90;99.90;;;;;;5052509;28;20040;-69
2022/11/08 00:48:54;;;;;;;24.00;17.08;;;12.80;99.90;;;;;;5052560;28;20048;-69
2022/11/08 00:51:58;;;;;;;31.45;16.23;;;12.80;99.90;;;;;;5052020;28;20076;-69
2022/11/08 00:55:03;;;;;;;26.55;15.93;;;12.70;99.90;;;;;;5052575;28;20061;-69
2022/11/08 00:58:06;;;;;;;23.50;16.02;;;12.00;99.90;;;;;;5052408;28;20056;-69
2022/11/08 01:01:15;;;;;;;21.33;15.48;;;12.60;99.90;;;;;;5052163;28;20060;-69
2022/11/08 01:04:19;;;;;;;25.83;18.23;;;12.60;99.90;;;;;;5052288;28;20044;-69
2022/11/08 01:07:23;;;;;;;26.48;16.30;;;8.90;99.90;;;;;;5052258;28;20048;-69
2022/11/08 01:10:27;;;;;;;26.05;16.60;;;12.60;99.90;;;;;;5052268;28;20036;-69
2022/11/08 01:13:32;;;;;;;24.08;15.63;;;13.50;99.90;;;;;;5052180;28;20048;-70
2022/11/08 01:16:36;;;;;;;22.00;15.80;;;13.70;99.90;;;;;;5052373;28;20044;-70
2022/11/08 01:19:40;;;;;;;22.40;16.52;;;12.50;99.90;;;;;;5052094;28;20044;-69
2022/11/08 01:22:43;;;;;;;28.90;16.65;;;12.30;99.90;;;;;;5052068;28;20040;-69
2022/11/08 01:25:48;;;;;;;21.58;15.00;;;12.30;99.90;;;;;;5051215;28;20608;-69
2022/11/08 01:28:53;;;;;;;26.25;16.17;;;12.30;99.90;;;;;;5051634;28;20523;-69
2022/11/08 01:31:57;;;;;;;22.75;15.30;;;12.50;99.90;;;;;;5051975;28;20507;-69
2022/11/08 01:35:01;;;;;;;27.38;15.77;;;12.10;99.90;;;;;;5051636;28;20052;-69
2022/11/08 01:38:06;;;;;;;23.70;16.08;;;12.30;99.90;;;;;;5051471;28;20052;-69
2022/11/08 01:41:15;;;;;;;24.90;15.10;;;12.30;99.90;;;;;;5051494;28;20052;-69
2022/11/08 01:44:20;;;;;;;21.58;15.35;;;12.30;99.90;;;;;;5051540;28;20040;-69
2022/11/08 01:47:24;;;;;;;24.40;16.23;;;12.40;99.90;;;;;;5051476;28;20075;-69
2022/11/08 01:50:28;;;;;;;22.65;15.45;;;12.40;99.90;;;;;;5050599;28;20056;-69
2022/11/08 01:53:33;;;;;;;23.17;14.15;;;12.30;99.90;;;;;;5051227;28;20048;-69
2022/11/08 01:56:38;;;;;;;26.25;15.00;;;12.40;99.90;;;;;;5051219;28;20056;-69
2022/11/08 01:59:46;;;;;;;19.48;14.10;;;12.20;99.90;;;;;;5050939;28;20039;-69
2022/11/08 02:02:59;;;;;;;20.70;14.63;;;12.20;99.90;;;;;;5051172;28;20523;-69
2022/11/08 02:06:04;;;;;;;21.05;13.52;;;12.20;99.90;;;;;;5051499;28;20044;-69
2022/11/08 02:09:11;;;;;;;20.15;14.43;;;12.10;99.90;;;;;;5050935;28;20047;-69
2022/11/08 02:12:16;;;;;;;23.73;13.68;;;;;;;;;;5050497;28;20048;-69
2022/11/08 02:15:23;;;;;;;22.77;14.95;;;12.10;99.90;;;;;;5050987;28;20036;-69
2022/11/08 02:18:30;;;;;;;20.73;15.00;;;12.10;99.90;;;;;;5051337;28;20048;-69
2022/11/08 02:21:48;;;;;;;21.15;14.95;;;12.10;99.90;;;;;;5050994;28;20067;-69
2022/11/08 02:24:53;;;;;;;20.67;14.15;;;11.80;99.90;;;;;;5051273;28;20056;-69
2022/11/08 02:27:57;;;;;;;23.63;14.50;;;12.20;99.90;;;;;;5051010;28;20052;-69
2022/11/08 02:31:00;;;;;;;24.35;13.52;;;11.80;99.90;;;;;;5051034;28;20044;-69
2022/11/08 02:34:04;;;;;;;24.25;12.82;;;10.90;99.90;;;;;;5051291;28;20527;-69
2022/11/08 02:37:09;;;;;;;20.30;13.18;;;;;;;;;;5051101;28;20048;-69
2022/11/08 02:40:13;;;;;;;23.70;14.15;;;;;;;;;;5051052;28;20120;-69
2022/11/08 02:43:17;;;;;;;20.52;13.73;;;12.30;99.90;;;;;;5050928;28;20044;-69
2022/11/08 02:46:21;;;;;;;29.05;13.65;;;9.60;99.90;;;;;;5050994;28;20408;-69
2022/11/08 02:49:24;;;;;;;24.85;12.32;;;11.90;99.90;;;;;;5050939;28;20052;-69
2022/11/08 02:52:28;;;;;;;21.13;11.93;;;9.70;99.90;;;;;;5050855;28;20052;-69
2022/11/08 02:55:33;;;;;;;22.27;13.07;;;12.40;99.90;;;;;;5049858;28;20503;-69
2022/11/08 02:58:37;;;;;;;22.58;14.10;;;15.30;99.90;;;;;;5050745;28;20538;-69
2022/11/08 03:01:41;;;;;;;19.33;12.20;;;13.50;99.90;;;;;;5053308;28;20056;-69
2022/11/08 03:04:45;;;;;;;24.30;13.25;;;11.90;99.90;;;;;;5054672;28;20036;-69
2022/11/08 03:07:49;;;;;;;19.58;12.27;;;11.90;99.90;;;;;;5054683;28;20048;-69
2022/11/08 03:10:53;;;;;;;18.50;12.65;;;11.90;99.90;;;;;;5054493;28;20040;-69
2022/11/08 03:13:58;;;;;;;23.65;12.48;;;;;;;;;;5054577;28;20044;-69
2022/11/08 03:17:03;;;;;;;17.15;12.65;;;;;;;;;;5054274;28;20040;-69
2022/11/08 03:20:07;;;;;;;22.48;12.82;;;;;;;;;;5054372;28;20047;-69
2022/11/08 03:23:11;;;;;;;20.83;12.38;;;;;;;;;;5053590;28;20052;-70
2022/11/08 03:26:16;;;;;;;17.73;11.40;;;11.40;99.90;;;;;;5054231;28;20044;-69
2022/11/08 03:29:19;;;;;;;18.42;12.50;;;11.90;99.90;;;;;;5054263;28;20047;-69
2022/11/08 03:32:23;;;;;;;20.70;12.43;;;11.80;99.90;;;;;;5054000;28;20039;-69
2022/11/08 03:35:27;;;;;;;18.27;12.40;;;11.90;99.90;;;;;;5054293;28;20460;-69
2022/11/08 03:38:31;;;;;;;19.02;11.98;;;12.00;99.90;;;;;;5053799;28;20048;-69
2022/11/08 03:41:35;;;;;;;24.45;13.10;;;10.60;99.90;;;;;;5053766;28;20056;-69
2022/11/08 03:44:40;;;;;;;20.60;12.18;;;;;;;;;;5054221;28;20044;-69
2022/11/08 03:47:45;;;;;;;20.63;11.98;;;12.00;99.90;;;;;;5053710;28;20687;-69
2022/11/08 03:50:50;;;;;;;18.88;11.32;;;11.00;99.90;;;;;;5053464;28;20056;-69
2022/11/08 03:53:55;;;;;;;17.63;10.80;;;;;;;;;;5053969;28;20043;-69
2022/11/08 03:56:59;;;;;;;15.52;11.25;;;;;;;;;;5053784;28;20052;-69
2022/11/08 04:00:06;;;;;;;15.32;11.40;;;11.70;99.90;;;;;;5053587;28;20397;-69
2022/11/08 04:03:15;;;;;;;21.63;11.60;;;;;;;;;;5053795;28;20531;-69
2022/11/08 04:06:20;;;;;;;17.58;11.02;;;;;;;;;;5053960;28;20639;-69
2022/11/08 04:09:24;;;;;;;14.93;10.35;;;;;;;;;;5053940;28;20057;-69
2022/11/08 04:15:53;;;;;;;15.20;10.15;;;11.60;99.90;;;;;;5053265;28;20036;-69
2022/11/08 04:22:23;;;;;;;16.90;10.60;;;11.10;99.90;;;;;;5053186;28;20052;-69
2022/11/08 04:25:27;;;;;;;16.05;10.30;;;;;;;;;;5052962;28;20044;-69
2022/11/08 04:28:33;;;;;;;14.45;10.43;;;11.40;99.90;;;;;;5052028;28;20044;-69
2022/11/08 04:31:38;;;;;;;18.70;9.95;;;;;;;;;;5053168;28;20067;-69
2022/11/08 04:34:42;;;;;;;15.98;9.98;;;;;;;;;;5052842;28;20033;-69
2022/11/08 04:37:46;;;;;;;18.35;10.52;;;;;;;;;;5052935;28;20049;-69
2022/11/08 04:40:50;;;;;;;17.48;10.85;;;;;;;;;;5052879;28;20044;-69
2022/11/08 04:43:55;;;;;;;16.10;10.95;;;11.30;99.90;;;;;;5052811;28;20503;-68
2022/11/08 04:47:00;;;;;;;19.08;10.15;;;;;;;;;;5052754;28;20043;-68
2022/11/08 04:50:04;;;;;;;14.80;9.73;;;11.40;99.90;;;;;;5052505;28;20195;-68
2022/11/08 04:53:08;;;;;;;17.67;10.50;;;;;;;;;;5052419;28;20040;-68
2022/11/08 04:56:15;;;;;;;14.25;9.90;;;11.30;99.90;;;;;;5052620;28;20040;-68
2022/11/08 04:59:20;;;;;;;16.15;10.38;;;;;;;;;;5052543;28;20032;-68
2022/11/08 05:02:24;;;;;;;17.15;9.65;;;10.80;99.90;;;;;;5052161;28;20060;-69
2022/11/08 05:05:28;;;;;;;15.32;9.85;;;11.30;99.90;;;;;;5052256;28;20036;-68
2022/11/08 05:08:32;;;;;;;14.52;9.38;;;;;;;;;;5052271;28;20044;-68
2022/11/08 05:11:36;;;;;;;20.95;10.85;;;12.40;99.90;;;;;;5052199;28;20029;-69
2022/11/08 05:14:40;;;;;;;17.02;10.65;;;;;;;;;;5052157;28;20052;-68
2022/11/08 05:17:45;;;;;;;24.35;11.38;;;;;;;;;;5052216;28;20056;-68
2022/11/08 05:24:17;;;;;;;18.60;10.15;;;14.50;99.90;;;;;;5051687;28;20044;-68
2022/11/08 05:27:21;;;;;;;19.73;9.07;;;;;;;;;;5051948;28;20052;-68
2022/11/08 05:30:25;;;;;;;15.73;9.35;;;;;;;;;;5051709;28;20044;-68
2022/11/08 05:33:29;;;;;;;18.13;9.52;;;;;;;;;;5051831;28;20041;-68
2022/11/08 05:36:34;;;;;;;17.98;9.88;;;;;;;;;;5051652;28;20041;-68
2022/11/08 05:39:38;;;;;;;18.40;10.35;;;;;;;;;;5051353;28;20048;-68
2022/11/08 05:42:42;;;;;;;37.75;15.98;;;;;;;;;;5050873;28;20047;-69
2022/11/08 05:45:47;;;;;;;36.58;15.10;;;;;;;;;;5051731;28;20048;-68
2022/11/08 05:48:51;;;;;;;32.20;12.02;;;12.40;99.90;;;;;;5051554;28;20044;-69
2022/11/08 05:51:54;;;;;;;29.20;10.93;;;10.20;99.90;;;;;;5051285;28;20393;-68
2022/11/08 05:55:00;;;;;;;20.77;10.95;;;;;;;;;;5051328;28;20053;-68
2022/11/08 05:58:05;;;;;;;17.33;9.95;;;;;;;;;;5051452;28;20043;-68
2022/11/08 06:01:14;;;;;;;21.40;13.15;;;11.40;99.90;;;;;;5051557;28;20481;-68
2022/11/08 06:04:18;;;;;;;24.95;10.75;;;;;;;;;;5051407;28;20048;-68
2022/11/08 06:07:23;;;;;;;25.50;12.60;;;;;;;;;;5051187;28;20047;-69
2022/11/08 06:10:27;;;;;;;20.45;10.98;;;;;;;;;;5051384;28;20047;-68
2022/11/08 06:13:32;;;;;;;34.35;12.00;;;11.70;99.90;;;;;;5051213;28;20032;-68
2022/11/08 06:16:36;;;;;;;20.65;12.55;;;11.40;99.90;;;;;;5051202;28;20451;-68
2022/11/08 06:19:40;;;;;;;24.10;12.82;;;;;;;;;;5050210;28;20472;-68
2022/11/08 06:22:44;;;;;;;20.65;12.43;;;;;;;;;;5051363;28;20056;-70
2022/11/08 06:25:49;;;;;;;29.33;12.38;;;;;;;;;;5050940;28;20040;-70
2022/11/08 06:28:53;;;;;;;29.52;12.43;;;;;;;;;;5049943;28;20044;-69
2022/11/08 06:31:57;;;;;;;21.70;10.52;;;11.80;99.90;;;;;;5051208;28;20040;-69
2022/11/08 06:35:01;;;;;;;21.45;12.88;;;;;;;;;;5051037;28;20051;-70
2022/11/08 06:38:05;;;;;;;24.50;13.82;;;12.20;99.90;;;;;;5054836;28;20064;-65
2022/11/08 06:41:14;;;;;;;24.73;13.57;;;;;;;;;;5054587;28;20261;-65
2022/11/08 06:44:18;;;;;;;31.63;12.60;;;12.10;99.90;;;;;;5054475;28;20052;-66
2022/11/08 06:47:22;;;;;;;28.50;12.77;;;12.30;99.90;;;;;;5053531;28;20052;-66
2022/11/08 06:50:27;;;;;;;27.45;12.02;;;12.20;99.90;;;;;;5054106;28;20403;-66
2022/11/08 06:53:31;;;;;;;29.05;13.23;;;12.60;99.90;;;;;;5054501;28;20052;-68
2022/11/08 06:56:35;;;;;;;29.58;14.88;;;12.70;99.90;;;;;;5054390;28;20044;-65
2022/11/08 06:59:39;;;;;;;33.53;19.08;;;13.00;99.90;;;;;;5054676;28;20124;-66
2022/11/08 07:02:43;;;;;;;37.72;16.15;;;13.10;99.90;;;;;;5054155;28;20068;-65
2022/11/08 07:05:47;;;;;;;23.85;16.40;;;13.20;99.90;;;;;;5054384;28;20048;-65
2022/11/08 07:08:51;;;;;;;23.75;15.15;;;13.40;99.90;;;;;;5053968;28;20060;-65
2022/11/08 07:11:55;;;;;;;25.45;14.90;;;13.60;99.90;;;;;;5054195;28;20500;-64
2022/11/08 07:14:59;;;;;;;24.63;15.05;;;13.60;99.90;;;;;;5053816;28;20149;-65
2022/11/08 07:18:09;;;;;;;28.58;14.75;;;13.80;99.90;;;;;;5053470;28;20527;-65
2022/11/08 07:21:13;;;;;;;24.35;12.68;;;14.10;99.90;;;;;;5053451;28;20048;-64
2022/11/08 07:24:17;;;;;;;27.35;14.43;;;14.10;99.90;;;;;;5053870;28;20507;-64
2022/11/08 07:27:21;;;;;;;21.70;13.68;;;14.40;99.90;;;;;;5053803;28;20044;-67
2022/11/08 07:30:25;;;;;;;19.45;12.43;;;14.60;99.90;;;;;;5053968;28;20048;-66
2022/11/08 07:33:30;;;;;;;17.27;11.30;;;14.80;99.90;;;;;;5053436;28;20047;-66
2022/11/08 07:36:34;;;;;;;19.42;11.70;;;14.90;99.90;;;;;;5052761;28;20040;-66
2022/11/08 07:39:38;;;;;;;12.55;9.48;;;15.20;99.90;;;;;;5053251;28;20048;-66
2022/11/08 07:42:42;;;;;;;15.70;10.40;;;15.40;99.90;;;;;;5052987;28;20052;-66
2022/11/08 07:45:56;;;;;;;17.13;10.32;;;15.70;99.80;;;;;;5052431;28;20040;-66
2022/11/08 07:49:00;;;;;;;15.20;11.20;;;15.90;99.20;;;;;;5052716;28;20047;-66
2022/11/08 07:52:04;;;;;;;19.80;13.00;;;16.10;98.80;;;;;;5053353;28;20527;-66
2022/11/08 07:55:08;;;;;;;25.13;14.63;;;16.20;98.30;;;;;;5053749;28;20048;-66
2022/11/08 07:58:13;;;;;;;24.50;14.00;;;16.40;98.40;;;;;;5056900;28;20044;-66
2022/11/08 08:01:17;;;;;;;18.58;12.35;;;16.60;98.30;;;;;;5056514;28;20059;-66
2022/11/08 08:04:21;;;;;;;19.13;13.18;;;16.70;98.00;;;;;;5054568;28;20389;-66
2022/11/08 08:07:24;;;;;;;19.38;13.73;;;16.90;97.70;;;;;;5054261;28;20063;-66
2022/11/08 08:10:29;;;;;;;22.05;14.32;;;17.00;97.60;;;;;;5054345;28;20499;-66
2022/11/08 08:13:34;;;;;;;24.17;14.75;;;17.10;97.50;;;;;;5053423;28;20059;-66
2022/11/08 08:16:39;;;;;;;25.77;13.57;;;17.20;97.00;;;;;;5053072;28;20048;-66
2022/11/08 08:19:43;;;;;;;28.02;14.52;;;17.20;96.70;;;;;;5053208;28;20048;-66
2022/11/08 08:22:49;;;;;;;22.05;12.73;;;17.20;96.70;;;;;;5052615;28;20432;-66
2022/11/08 08:25:53;;;;;;;19.08;12.27;;;17.30;96.80;;;;;;5053061;28;20503;-66
2022/11/08 08:28:58;;;;;;;21.95;12.63;;;17.40;96.50;;;;;;5052687;28;20120;-65
2022/11/08 08:32:01;;;;;;;19.83;10.95;;;17.40;96.10;;;;;;5052819;28;20052;-66
2022/11/08 08:35:06;;;;;;;20.50;10.27;;;17.40;96.50;;;;;;5052479;28;20056;-66
2022/11/08 08:38:11;;;;;;;17.50;10.73;;;17.50;96.60;;;;;;5052687;28;20412;-66
2022/11/08 08:41:15;;;;;;;19.95;10.15;;;17.70;96.40;;;;;;5052407;28;20040;-66
2022/11/08 08:44:20;;;;;;;15.30;9.38;;;17.80;96.60;;;;;;5052604;28;20052;-66
2022/11/08 08:47:24;;;;;;;18.73;10.13;;;17.90;96.40;;;;;;5052509;28;20060;-66
2022/11/08 08:50:30;;;;;;;19.85;10.20;;;18.00;95.90;;;;;;5051576;28;20408;-66
2022/11/08 08:53:34;;;;;;;19.65;9.30;;;18.10;95.80;;;;;;5052726;28;20044;-66
2022/11/08 08:56:38;;;;;;;12.75;8.43;;;18.20;95.80;;;;;;5052431;28;20048;-66
2022/11/08 08:59:42;;;;;;;15.32;8.13;;;18.30;95.80;;;;;;5052004;28;20373;-66
2022/11/08 09:02:46;;;;;;;14.82;8.30;;;18.40;95.60;;;;;;5051122;28;20060;-66
2022/11/08 09:05:50;;;;;;;14.38;9.30;;;18.50;95.30;;;;;;5052069;28;20044;-66
2022/11/08 09:08:54;;;;;;;12.18;9.00;;;18.60;95.30;;;;;;5051710;28;20040;-66
2022/11/08 09:11:57;;;;;;;15.25;8.38;;;18.70;94.90;;;;;;5051729;28;20040;-66
2022/11/08 09:15:03;;;;;;;13.32;8.75;;;18.80;95.10;;;;;;5051692;28;20055;-66
2022/11/08 09:18:08;;;;;;;11.32;7.30;;;18.90;95.10;;;;;;5051553;28;20507;-66
2022/11/08 09:21:12;;;;;;;13.63;7.90;;;19.10;94.70;;;;;;5052035;28;20047;-66
2022/11/08 09:24:16;;;;;;;10.38;8.18;;;19.20;94.40;;;;;;5051627;28;20048;-66
2022/11/08 09:27:20;;;;;;;16.77;8.98;;;19.40;94.30;;;;;;5051494;28;20055;-66
2022/11/08 09:30:25;;;;;;;11.82;7.57;;;19.50;93.80;;;;;;5051536;28;20048;-66
2022/11/08 09:33:29;;;;;;;15.85;7.80;;;19.50;94.10;;;;;;5051747;28;20511;-66
2022/11/08 09:36:33;;;;;;;16.05;7.93;;;19.70;94.20;;;;;;5051709;28;20507;-66
2022/11/08 09:39:36;;;;;;;13.23;8.25;;;19.80;93.90;;;;;;5051215;28;20044;-66
2022/11/08 09:42:58;;;;;;;13.50;7.85;;;20.00;93.70;;;;;;5051021;28;20211;-66
2022/11/08 09:46:02;;;;;;;13.80;7.22;;;20.10;93.60;;;;;;5051094;28;20040;-66
2022/11/08 09:49:14;;;;;;;10.32;7.35;;;20.30;93.30;;;;;;5051189;28;20052;-66
2022/11/08 09:52:23;;;;;;;9.40;6.18;;;20.40;92.90;;;;;;5051234;28;20047;-66
2022/11/08 09:55:34;;;;;;;13.98;7.50;;;20.50;92.80;;;;;;5051336;28;20043;-66
2022/11/08 09:59:03;;;;;;;11.43;7.25;;;20.60;92.60;;;;;;5051144;28;20048;-66
2022/11/08 10:02:18;;;;;;;17.25;9.43;;;20.70;92.50;;;;;;5050707;28;20051;-66
2022/11/08 10:05:33;;;;;;;22.40;12.48;;;20.80;92.30;;;;;;5051187;28;20063;-67
2022/11/08 10:09:05;;;;;;;26.42;16.05;;;20.80;92.30;;;;;;5050864;28;20044;-66
2022/11/08 10:12:19;;;;;;;43.90;27.38;;;21.00;92.70;;;;;;5050808;28;20527;-66
2022/11/08 10:15:54;;;;;;;40.00;25.63;;;21.10;92.50;;;;;;5051042;28;20060;-66
2022/11/08 10:19:25;;;;;;;31.98;21.10;;;21.10;92.00;;;;;;5050882;28;20103;-66
2022/11/08 10:23:04;;;;;;;28.15;16.92;;;21.20;91.90;;;;;;5050929;28;20052;-66
2022/11/08 10:26:15;;;;;;;27.55;14.02;;;21.30;91.90;;;;;;5050759;28;20040;-66
2022/11/08 10:29:20;;;;;;;;;;;21.40;92.00;;;;;;5051616;28;20052;-66
2022/11/08 10:32:24;;;;;;;20.17;13.23;;;21.40;91.80;;;;;;5050892;28;19916;-66
2022/11/08 10:35:43;;;;;;;15.93;9.18;;;21.50;91.60;;;;;;5051307;28;20040;-66
2022/11/08 10:39:10;;;;;;;15.25;8.40;;;21.50;91.60;;;;;;5050672;28;20048;-66
2022/11/08 10:42:36;;;;;;;8.25;5.72;;;21.50;91.60;;;;;;5049929;28;20055;-66
2022/11/08 10:45:40;;;;;;;10.88;5.88;;;21.60;91.50;;;;;;5051181;28;20044;-66
2022/11/08 10:48:44;;;;;;;10.45;4.75;;;21.60;91.00;;;;;;5051297;28;20388;-66
2022/11/08 10:51:52;;;;;;;10.60;4.97;;;21.60;90.80;;;;;;5050886;28;20056;-66
2022/11/08 10:55:00;;;;;;;12.63;6.50;;;21.50;90.70;;;;;;5050914;28;20052;-66
2022/11/08 10:58:28;;;;;;;9.60;6.32;;;21.50;90.60;;;;;;5050615;28;20412;-66
2022/11/08 11:01:32;;;;;;;13.40;6.78;;;21.50;90.80;;;;;;5050497;28;20052;-66
2022/11/08 11:04:36;;;;;;;10.35;6.45;;;21.40;90.70;;;;;;5050356;28;20512;-66
2022/11/08 11:07:42;;;;;;;8.30;5.38;;;21.40;90.80;;;;;;5049808;28;20055;-64
2022/11/08 11:10:48;;;;;;;9.93;5.65;;;21.40;90.70;;;;;;5048852;28;20036;-64
2022/11/08 11:14:17;;;;;;;8.40;5.18;;;21.30;90.60;;;;;;5050065;28;20040;-63
2022/11/08 11:17:31;;;;;;;8.43;5.45;;;21.20;90.90;;;;;;5050031;28;20048;-64
2022/11/08 11:20:35;;;;;;;8.20;4.72;;;21.10;90.90;;;;;;5050280;28;20535;-63
2022/11/08 11:23:52;;;;;;;7.15;5.10;;;21.10;91.10;;;;;;5053560;28;20064;-64
2022/11/08 11:26:57;;;;;;;12.18;5.60;;;21.10;91.10;;;;;;5053543;28;20052;-64
2022/11/08 11:30:20;;;;;;;8.20;5.40;;;21.00;91.10;;;;;;5053692;28;20040;-65
2022/11/08 11:33:28;;;;;;;8.05;4.72;;;21.00;91.20;;;;;;5053887;28;20396;-67
2022/11/08 11:36:32;;;;;;;9.32;5.30;;;20.90;91.10;;;;;;5053799;28;20329;-65
2022/11/08 11:40:09;;;;;;;7.25;4.78;;;20.90;91.00;;;;;;5053813;28;20043;-64
2022/11/08 11:43:33;;;;;;;8.65;5.00;;;20.80;90.80;;;;;;5053502;28;20059;-64
2022/11/08 11:47:03;;;;;;;7.50;3.88;;;20.80;90.90;;;;;;5053591;28;20040;-65
2022/11/08 11:50:30;;;;;;;7.65;5.15;;;20.80;91.10;;;;;;5053284;28;20056;-64
2022/11/08 11:53:36;;;;;;;7.80;5.38;;;20.70;91.10;;;;;;5053613;28;20048;-67
2022/11/08 11:57:00;;;;;;;7.63;4.85;;;20.70;91.00;;;;;;5053411;28;20043;-65
2022/11/08 12:00:08;;;;;;;9.27;5.05;;;20.70;91.10;;;;;;5053279;28;20044;-64
2022/11/08 12:03:22;;;;;;;7.53;4.15;;;20.60;90.80;;;;;;5052396;28;20072;-64
2022/11/08 12:06:57;;;;;;;6.72;4.50;;;20.60;91.00;;;;;;5052560;28;20043;-65
2022/11/08 12:10:04;;;;;;;6.75;4.65;;;20.60;91.30;;;;;;5052965;28;20400;-63
2022/11/08 12:13:26;;;;;;;9.63;4.70;;;20.60;91.10;;;;;;5052721;28;20365;-64
2022/11/08 12:16:33;;;;;;;;;;;20.50;91.10;;;;;;5053331;28;20056;-65
2022/11/08 12:20:22;;;;;;;8.93;4.68;;;20.50;91.20;;;;;;5052692;28;19931;-66
2022/11/08 12:23:46;;;;;;;5.57;4.38;;;20.50;91.60;;;;;;5052533;28;20507;-66
2022/11/08 12:27:14;;;;;;;7.22;4.53;;;20.50;91.60;;;;;;5052511;28;20044;-65
2022/11/08 12:30:19;;;;;;;6.72;4.38;;;20.50;91.60;;;;;;5052517;28;20052;-65
2022/11/08 12:33:40;;;;;;;9.32;5.15;;;20.50;91.60;;;;;;5051831;28;20591;-64
2022/11/08 12:36:44;;;;;;;5.35;3.70;;;20.50;91.70;;;;;;5052464;28;20064;-65
2022/11/08 12:39:55;;;;;;;6.78;3.80;;;20.50;91.70;;;;;;5052344;28;20040;-65
2022/11/08 12:43:21;;;;;;;11.38;5.70;;;20.50;91.80;;;;;;5052417;28;20056;-65
2022/11/08 12:46:31;;;;;;;8.30;4.22;;;20.50;91.50;;;;;;5052333;28;20523;-65
2022/11/08 12:49:44;;;;;;;9.15;3.85;;;20.50;91.50;;;;;;5052555;28;20056;-66
2022/11/08 12:53:15;;;;;;;6.90;3.85;;;20.50;91.60;;;;;;5052397;28;20052;-65
2022/11/08 12:56:24;;;;;;;6.95;4.30;;;20.40;91.60;;;;;;5052058;28;20527;-65
2022/11/08 12:59:39;;;;;;;8.23;4.88;;;20.40;91.70;;;;;;5052127;28;20037;-65
2022/11/08 13:02:54;;;;;;;6.25;4.10;;;20.40;91.30;;;;;;5052000;28;20056;-65
2022/11/08 13:06:07;;;;;;;7.10;3.78;;;20.30;91.30;;;;;;5052054;28;20040;-65
2022/11/08 13:09:17;;;;;;;5.00;3.22;;;20.30;91.40;;;;;;5051852;28;20424;-67
2022/11/08 13:12:36;;;;;;;5.70;3.45;;;20.30;91.50;;;;;;5051808;28;20043;-66
2022/11/08 13:16:10;;;;;;;5.35;3.25;;;20.30;91.50;;;;;;5051771;28;20048;-65
2022/11/08 13:19:28;;;;;;;5.57;3.55;;;20.30;91.50;;;;;;5051683;28;20052;-65
2022/11/08 13:22:41;;;;;;;6.10;3.45;;;20.30;91.40;;;;;;5051680;28;20056;-65
2022/11/08 13:25:46;;;;;;;7.53;4.22;;;20.30;91.40;;;;;;5051694;28;20044;-65
2022/11/08 13:28:51;;;;;;;11.20;5.93;;;20.30;91.40;;;;;;5051617;28;20460;-65
2022/11/08 13:31:57;;;;;;;8.18;4.95;;;20.20;90.80;;;;;;5051638;28;20076;-65
2022/11/08 13:35:23;;;;;;;14.43;6.07;;;20.20;90.90;;;;;;5051304;28;20062;-65
2022/11/08 13:38:50;;;;;;;11.68;5.15;;;20.20;91.00;;;;;;5051302;28;20147;-65
2022/11/08 13:42:18;;;;;;;9.48;5.15;;;20.20;91.20;;;;;;5050657;28;20499;-65
2022/11/08 13:45:29;;;;;;;10.80;6.60;;;20.20;91.30;;;;;;5055720;28;20397;-64
2022/11/08 13:48:40;;;;;;;14.35;7.90;;;20.10;91.20;;;;;;5050293;28;20044;-64
2022/11/08 13:51:45;;;;;;;8.70;5.57;;;20.10;90.90;;;;;;5051170;28;20052;-65
2022/11/08 13:54:50;;;;;;;8.52;5.30;;;20.00;91.00;;;;;;5051404;28;20400;-65
2022/11/08 13:58:00;;;;;;;13.43;6.75;;;20.00;91.10;;;;;;5051025;28;20044;-65
2022/11/08 14:01:17;;;;;;;9.85;7.05;;;20.00;91.50;;;;;;5051170;28;20064;-65
2022/11/08 14:04:49;;;;;;;12.48;6.95;;;20.00;91.80;;;;;;5051302;28;20063;-65
2022/11/08 14:08:20;;;;;;;13.00;6.38;;;19.90;91.90;;;;;;5050736;28;20048;-65
2022/11/08 14:11:42;;;;;;;10.43;6.20;;;19.90;91.90;;;;;;5051189;28;20052;-65
2022/11/08 14:14:59;;;;;;;9.70;5.72;;;19.90;92.00;;;;;;5050816;28;20040;-65
2022/11/08 14:18:09;;;;;;;6.95;5.05;;;19.90;92.20;;;;;;5050536;28;20052;-65
2022/11/08 14:21:18;;;;;;;9.65;5.70;;;19.90;92.30;;;;;;5050820;28;20503;-65
2022/11/08 14:24:32;;;;;;;11.50;6.07;;;19.80;92.30;;;;;;5050785;28;20408;-65
2022/11/08 14:27:39;;;;;;;11.43;6.03;;;19.80;92.30;;;;;;5050316;28;20052;-65
2022/11/08 14:30:48;;;;;;;16.67;6.85;;;19.80;92.30;;;;;;5050880;28;20052;-65
2022/11/08 14:33:53;;;;;;;9.52;4.93;;;19.80;92.40;;;;;;5050676;28;20040;-65
2022/11/08 14:36:58;;;;;;;11.35;6.65;;;19.70;92.50;;;;;;5050536;28;20040;-65
2022/11/08 14:40:03;;;;;;;11.88;7.00;;;19.70;92.70;;;;;;5050815;28;20468;-65
2022/11/08 14:43:10;;;;;;;14.80;7.05;;;19.70;92.90;;;;;;5050117;28;20700;-65
2022/11/08 14:46:19;;;;;;;12.98;7.05;;;19.70;93.00;;;;;;5050252;28;20048;-65
2022/11/08 14:49:35;;;;;;;10.45;6.22;;;19.70;93.10;;;;;;5050564;28;20048;-65
2022/11/08 14:52:39;;;;;;;9.52;6.72;;;19.70;93.20;;;;;;5050080;28;20044;-65
2022/11/08 14:55:43;;;;;;;16.17;9.15;;;19.70;93.20;;;;;;5050222;28;20048;-65
2022/11/08 14:58:48;;;;;;;16.73;8.05;;;19.60;93.40;;;;;;5054182;28;20051;-65
2022/11/08 15:01:52;;;;;;;11.75;7.57;;;19.60;93.50;;;;;;5054181;28;20040;-65
2022/11/08 15:04:56;;;;;;;8.95;5.85;;;19.60;93.60;;;;;;5054003;28;20483;-65
2022/11/08 15:08:03;;;;;;;10.77;6.10;;;19.50;93.80;;;;;;5054412;28;20036;-65
2022/11/08 15:11:10;;;;;;;11.07;6.72;;;19.50;93.70;;;;;;5053534;28;20368;-65
2022/11/08 15:14:20;;;;;;;17.58;7.43;;;19.50;93.80;;;;;;5054009;28;20063;-65
2022/11/08 15:17:38;;;;;;;13.40;8.07;;;19.40;93.90;;;;;;5053874;28;20039;-64
2022/11/08 15:20:58;;;;;;;16.30;8.85;;;19.40;94.00;;;;;;5053928;28;20055;-65
2022/11/08 15:24:14;;;;;;;16.05;9.32;;;19.40;94.10;;;;;;5053699;28;20060;-65
2022/11/08 15:27:23;;;;;;;14.52;7.53;;;19.40;94.10;;;;;;5053563;28;20544;-65
2022/11/08 15:30:29;;;;;;;15.07;8.40;;;19.30;94.20;;;;;;5053624;28;20198;-65
2022/11/08 15:33:39;;;;;;;21.05;9.00;;;19.30;94.20;;;;;;5053816;28;20040;-65
2022/11/08 15:36:43;;;;;;;16.92;8.68;;;19.20;94.40;;;;;;5053715;28;20044;-65
2022/11/08 15:39:49;;;;;;;19.90;9.23;;;19.20;94.50;;;;;;5053459;28;20044;-63
2022/11/08 15:42:53;;;;;;;24.20;9.77;;;19.10;94.70;;;;;;5052627;28;20072;-64
2022/11/08 15:45:59;;;;;;;31.88;10.10;;;19.00;94.90;;;;;;5053228;28;20041;-64
2022/11/08 15:49:24;;;;;;;22.35;9.30;;;18.90;95.10;;;;;;5052092;28;20664;-64
2022/11/08 15:52:27;;;;;;;18.80;9.02;;;18.90;95.20;;;;;;5052180;28;20048;-65
2022/11/08 15:55:45;;;;;;;23.92;10.30;;;18.80;95.30;;;;;;5052936;28;20677;-65
2022/11/08 15:58:49;;;;;;;18.65;9.40;;;18.70;95.40;;;;;;5053377;28;20052;-65
2022/11/08 16:01:56;;;;;;;19.17;9.80;;;18.70;95.50;;;;;;5053372;28;20040;-65
2022/11/08 16:05:12;;;;;;;18.95;10.40;;;18.60;95.70;;;;;;5053375;28;20059;-65
2022/11/08 16:08:16;;;;;;;21.42;10.88;;;18.60;95.70;;;;;;5051765;28;20524;-65
2022/11/08 16:11:22;;;;;;;25.88;11.23;;;18.60;95.80;;;;;;5052761;28;20048;-65
2022/11/08 16:14:26;;;;;;;29.02;12.43;;;18.60;95.90;;;;;;5052934;28;20044;-64
2022/11/08 16:17:30;;;;;;;34.75;12.43;;;18.60;96.00;;;;;;5052822;28;20040;-65
2022/11/08 16:20:35;;;;;;;37.15;13.70;;;18.50;96.10;;;;;;5052910;28;20396;-65
2022/11/08 16:23:40;;;;;;;43.28;13.13;;;18.40;96.20;;;;;;5052648;28;20415;-65
2022/11/08 16:26:45;;;;;;;34.42;13.75;;;18.40;96.40;;;;;;5052934;28;20047;-65
2022/11/08 16:29:49;;;;;;;45.15;13.05;;;18.30;96.70;;;;;;5052892;28;20055;-65
2022/11/08 16:32:53;;;;;;;28.63;13.45;;;18.30;96.80;;;;;;5051700;28;20043;-65
2022/11/08 16:36:05;;;;;;;40.50;16.60;;;18.20;96.90;;;;;;5052288;28;20055;-66
2022/11/08 16:39:21;;;;;;;66.03;33.08;;;18.10;97.10;;;;;;5052587;28;20507;-65